createdAt,value
2022-07-29T00:02:25.331Z,100823.22
2022-07-29T00:04:51.884Z,100819.94
2022-07-29T00:07:18.483Z,100822.50
2022-07-29T00:09:51.610Z,100816.34
2022-07-29T00:12:25.382Z,100817.47
2022-07-29T00:14:55.275Z,100820.13
2022-07-29T00:17:21.912Z,100810.50
2022-07-29T00:19:48.371Z,100803.47
2022-07-29T00:22:15.008Z,100804.41
2022-07-29T00:24:41.738Z,100803.47
2022-07-29T00:27:08.179Z,100795.69
2022-07-29T00:29:35.298Z,100792.34
2022-07-29T00:32:03.018Z,100796.00
2022-07-29T00:34:48.144Z,100779.31
2022-07-29T00:37:14.627Z,100774.84
2022-07-29T00:39:41.087Z,100772.44
2022-07-29T00:42:08.814Z,100771.44
2022-07-29T00:44:42.556Z,100765.41
2022-07-29T00:47:11.446Z,100755.69
2022-07-29T00:49:40.324Z,100754.94
2022-07-29T00:52:08.343Z,100747.03
2022-07-29T00:54:35.586Z,100745.25
2022-07-29T00:57:07.208Z,100739.94
2022-07-29T00:59:35.252Z,100745.34
2022-07-29T01:02:05.595Z,100741.81
2022-07-29T01:04:32.807Z,100735.66
2022-07-29T01:07:01.468Z,100737.47
2022-07-29T01:09:35.016Z,100740.13
2022-07-29T01:12:16.062Z,100741.13
2022-07-29T01:14:43.417Z,100728.69
2022-07-29T01:17:27.873Z,100738.72
2022-07-29T01:20:02.738Z,100732.47
2022-07-29T01:22:36.182Z,100731.63
2022-07-29T01:25:17.863Z,100733.41
2022-07-29T01:27:56.410Z,100724.59
2022-07-29T01:30:25.645Z,100729.06
2022-07-29T01:32:57.144Z,100726.41
2022-07-29T01:35:26.851Z,100722.19
2022-07-29T01:38:02.603Z,100722.19
2022-07-29T01:40:41.652Z,100730.25
2022-07-29T01:43:14.118Z,100726.81
2022-07-29T01:45:58.719Z,100719.03
2022-07-29T01:48:48.200Z,100719.03
2022-07-29T01:51:20.333Z,100719.34
2022-07-29T01:53:57.325Z,100721.25
2022-07-29T01:56:26.395Z,100719.50
2022-07-29T01:58:54.444Z,100720.09
2022-07-29T02:01:25.162Z,100718.38
2022-07-29T02:03:54.017Z,100722.28
2022-07-29T02:06:23.877Z,100722.56
2022-07-29T02:08:53.704Z,100722.69
2022-07-29T02:11:20.541Z,100719.69
2022-07-29T02:13:48.395Z,100715.22
2022-07-29T02:16:17.379Z,100721.56
2022-07-29T02:18:46.587Z,100724.91
2022-07-29T02:21:15.188Z,100719.19
2022-07-29T02:23:45.207Z,100729.31
2022-07-29T02:26:19.122Z,100740.56
2022-07-29T02:28:47.472Z,100734.31
2022-07-29T02:31:15.486Z,100732.41
2022-07-29T02:33:43.843Z,100733.34
2022-07-29T02:36:11.234Z,100736.19
2022-07-29T02:38:51.223Z,100733.53
2022-07-29T02:41:24.872Z,100735.97
2022-07-29T02:43:56.183Z,100741.44
2022-07-29T02:46:31.154Z,100742.47
2022-07-29T02:49:10.235Z,100752.94
2022-07-29T02:51:46.631Z,100755.91
2022-07-29T02:54:21.935Z,100742.78
2022-07-29T02:56:50.501Z,100742.88
2022-07-29T02:59:21.980Z,100742.72
2022-07-29T03:01:50.124Z,100745.25
2022-07-29T03:04:20.588Z,100753.34
2022-07-29T03:06:47.950Z,100761.44
2022-07-29T03:09:14.982Z,100766.66
2022-07-29T03:11:49.750Z,100764.25
2022-07-29T03:14:18.842Z,100760.03
2022-07-29T03:16:46.240Z,100763.44
2022-07-29T03:19:13.230Z,100772.44
2022-07-29T03:21:39.991Z,100788.44
2022-07-29T03:24:10.544Z,100796.75
2022-07-29T03:26:37.894Z,100794.19
2022-07-29T03:29:04.424Z,100793.63
2022-07-29T03:31:30.985Z,100798.16
2022-07-29T03:33:58.447Z,100810.47
2022-07-29T03:36:25.735Z,100813.34
2022-07-29T03:38:53.112Z,100809.06
2022-07-29T03:41:22.552Z,100816.53
2022-07-29T03:43:52.360Z,100812.78
2022-07-29T03:46:20.441Z,100803.97
2022-07-29T03:48:51.627Z,100806.69
2022-07-29T03:51:18.297Z,100800.41
2022-07-29T03:53:59.547Z,100806.94
2022-07-29T03:56:28.337Z,100803.66
2022-07-29T03:58:55.687Z,100798.66
2022-07-29T04:01:23.548Z,100792.41
2022-07-29T04:03:50.594Z,100790.94
2022-07-29T04:06:17.136Z,100784.28
2022-07-29T04:08:43.589Z,100792.91
2022-07-29T04:11:10.311Z,100772.81
2022-07-29T04:13:36.761Z,100775.75
2022-07-29T04:16:03.283Z,100779.34
2022-07-29T04:18:29.900Z,100772.88
2022-07-29T04:20:56.442Z,100774.03
2022-07-29T04:23:22.907Z,100783.03
2022-07-29T04:25:49.392Z,100774.22
2022-07-29T04:28:15.843Z,100778.03
2022-07-29T04:30:43.650Z,100780.69
2022-07-29T04:33:10.247Z,100773.19
2022-07-29T04:35:50.581Z,100769.59
2022-07-29T04:38:18.962Z,100776.53
2022-07-29T04:40:45.511Z,100785.22
2022-07-29T04:43:14.347Z,100792.06
2022-07-29T04:45:42.294Z,100805.38
2022-07-29T04:48:09.036Z,100796.66
2022-07-29T04:50:35.564Z,100803.09
2022-07-29T04:53:02.212Z,100791.78
2022-07-29T04:55:28.738Z,100780.97
2022-07-29T04:57:55.224Z,100778.88
2022-07-29T05:00:21.685Z,100774.63
2022-07-29T05:02:54.757Z,100780.72
2022-07-29T05:05:21.327Z,100776.94
2022-07-29T05:07:47.804Z,100781.78
2022-07-29T05:10:14.329Z,100785.81
2022-07-29T05:12:40.786Z,100798.19
2022-07-29T05:15:07.764Z,100800.84
2022-07-29T05:17:37.650Z,100797.13
2022-07-29T05:20:05.599Z,100795.41
2022-07-29T05:22:32.058Z,100788.19
2022-07-29T05:24:58.549Z,100790.47
2022-07-29T05:27:25.156Z,100793.13
2022-07-29T05:29:51.761Z,100796.41
2022-07-29T05:32:18.692Z,100797.09
2022-07-29T05:34:50.264Z,100789.00
2022-07-29T05:37:19.761Z,100798.50
2022-07-29T05:39:48.716Z,100795.81
2022-07-29T05:42:17.295Z,100794.88
2022-07-29T05:44:43.806Z,100797.38
2022-07-29T05:47:10.277Z,100795.28
2022-07-29T05:49:36.865Z,100789.22
2022-07-29T05:52:03.991Z,100791.78
2022-07-29T05:54:30.523Z,100782.91
2022-07-29T05:56:57.179Z,100792.41
2022-07-29T05:59:28.327Z,100799.41
2022-07-29T06:01:58.079Z,100801.97
2022-07-29T06:04:24.824Z,100807.28
2022-07-29T06:06:51.374Z,100807.84
2022-07-29T06:09:17.936Z,100813.94
2022-07-29T06:11:44.657Z,100814.56
2022-07-29T06:14:11.259Z,100822.31
2022-07-29T06:16:37.990Z,100831.88
2022-07-29T06:19:05.352Z,100822.88
2022-07-29T06:21:31.849Z,100828.88
2022-07-29T06:23:58.451Z,100830.31
2022-07-29T06:26:30.773Z,100831.00
2022-07-29T06:28:58.535Z,100831.66
2022-07-29T06:31:25.111Z,100840.38
2022-07-29T06:33:51.745Z,100839.44
2022-07-29T06:36:22.876Z,100839.53
2022-07-29T06:38:52.116Z,100845.56
2022-07-29T06:41:19.050Z,100850.72
2022-07-29T06:43:51.029Z,100852.25
2022-07-29T06:46:22.224Z,100850.53
2022-07-29T06:48:49.315Z,100852.34
2022-07-29T06:51:17.353Z,100849.94
2022-07-29T06:53:59.870Z,100846.34
2022-07-29T06:56:40.255Z,100847.91
2022-07-29T06:59:11.439Z,100853.84
2022-07-29T07:01:40.559Z,100860.78
2022-07-29T07:04:07.710Z,100859.06
2022-07-29T07:06:34.401Z,100868.41
2022-07-29T07:09:01.024Z,100863.84
2022-07-29T07:11:27.772Z,100864.00
2022-07-29T07:13:58.054Z,100859.53
2022-07-29T07:16:27.473Z,100866.56
2022-07-29T07:18:53.945Z,100867.34
2022-07-29T07:21:20.722Z,100863.13
2022-07-29T07:23:47.402Z,100862.19
2022-07-29T07:26:14.275Z,100870.66
2022-07-29T07:28:40.734Z,100880.16
2022-07-29T07:31:07.235Z,100881.25
2022-07-29T07:33:33.691Z,100885.91
2022-07-29T07:36:00.188Z,100894.06
2022-07-29T07:38:26.669Z,100881.09
2022-07-29T07:40:53.274Z,100875.72
2022-07-29T07:43:19.909Z,100883.03
2022-07-29T07:45:46.457Z,100868.91
2022-07-29T07:48:12.974Z,100867.19
2022-07-29T07:50:39.509Z,100865.41
2022-07-29T07:53:06.196Z,100862.91
2022-07-29T07:55:53.484Z,100859.13
2022-07-29T07:58:19.455Z,100865.28
2022-07-29T08:00:45.972Z,100862.91
2022-07-29T08:03:16.981Z,100865.41
2022-07-29T08:05:44.704Z,100869.00
2022-07-29T08:08:11.328Z,100874.44
2022-07-29T08:10:53.019Z,100883.25
2022-07-29T08:13:21.555Z,100872.81
2022-07-29T08:15:48.636Z,100871.00
2022-07-29T08:18:15.176Z,100873.72
2022-07-29T08:20:41.739Z,100864.00
2022-07-29T08:23:12.054Z,100867.69
2022-07-29T08:25:42.455Z,100873.28
2022-07-29T08:28:09.153Z,100865.47
2022-07-29T08:30:35.837Z,100865.56
2022-07-29T08:33:02.764Z,100857.38
2022-07-29T08:35:34.811Z,100855.75
2022-07-29T08:38:02.300Z,100853.94
2022-07-29T08:40:30.622Z,100855.66
2022-07-29T08:43:00.573Z,100854.72
2022-07-29T08:45:29.054Z,100853.75
2022-07-29T08:47:56.357Z,100851.81
2022-07-29T08:50:22.895Z,100851.81
2022-07-29T08:52:51.230Z,100854.69
2022-07-29T08:55:21.339Z,100851.81
2022-07-29T08:57:51.931Z,100850.38
2022-07-29T09:00:23.278Z,100849.66
2022-07-29T09:02:57.217Z,100848.81
2022-07-29T09:05:25.142Z,100844.94
2022-07-29T09:07:52.056Z,100840.34
2022-07-29T09:10:18.647Z,100843.69
2022-07-29T09:12:45.481Z,100839.84
2022-07-29T09:15:12.043Z,100844.09
2022-07-29T09:17:50.021Z,100838.91
2022-07-29T09:20:19.507Z,100837.06
2022-07-29T09:22:50.427Z,100843.94
2022-07-29T09:25:34.319Z,100848.16
2022-07-29T09:28:08.976Z,100857.84
2022-07-29T09:30:36.513Z,100856.75
2022-07-29T09:33:04.598Z,100853.88
2022-07-29T09:35:31.863Z,100859.97
2022-07-29T09:37:58.581Z,100866.91
2022-07-29T09:40:27.949Z,100858.94
2022-07-29T09:42:58.090Z,100860.97
2022-07-29T09:45:32.782Z,100861.03
2022-07-29T09:48:03.737Z,100857.50
2022-07-29T09:50:41.111Z,100863.47
2022-07-29T09:53:10.403Z,100857.88
2022-07-29T09:55:48.291Z,100863.03
2022-07-29T09:58:22.890Z,100864.13
2022-07-29T10:00:51.256Z,100862.63
2022-07-29T10:03:18.472Z,100859.22
2022-07-29T10:05:46.031Z,100863.56
2022-07-29T10:08:15.917Z,100859.09
2022-07-29T10:10:43.671Z,100866.03
2022-07-29T10:13:15.832Z,100864.25
2022-07-29T10:15:46.069Z,100860.66
2022-07-29T10:18:15.032Z,100875.50
2022-07-29T10:20:42.239Z,100875.34
2022-07-29T10:23:10.643Z,100865.69
2022-07-29T10:25:37.163Z,100867.63
2022-07-29T10:28:03.889Z,100865.97
2022-07-29T10:30:30.503Z,100867.84
2022-07-29T10:33:09.570Z,100867.75
2022-07-29T10:36:12.815Z,100877.22
2022-07-29T10:38:45.996Z,100875.19
2022-07-29T10:41:53.785Z,100888.16
2022-07-29T10:44:23.717Z,100879.34
2022-07-29T10:46:51.812Z,100882.69
2022-07-29T10:49:25.172Z,100878.97
2022-07-29T10:52:00.118Z,100879.53
2022-07-29T10:54:36.490Z,100881.88
2022-07-29T10:57:53.121Z,100880.81
2022-07-29T11:00:16.923Z,100881.53
2022-07-29T11:02:45.393Z,100887.31
2022-07-29T11:05:20.566Z,100882.75
2022-07-29T11:08:20.317Z,100894.72
2022-07-29T11:10:54.836Z,100884.59
2022-07-29T11:13:48.946Z,100883.28
2022-07-29T11:16:16.437Z,100886.38
2022-07-29T11:19:26.341Z,100882.78
2022-07-29T11:21:58.469Z,100889.38
2022-07-29T11:24:31.956Z,100891.28
2022-07-29T11:27:31.651Z,100891.53
2022-07-29T11:30:03.309Z,100890.28
2022-07-29T11:32:39.786Z,100882.16
2022-07-29T11:35:19.010Z,100885.09
2022-07-29T11:40:34.212Z,100874.94
2022-07-29T11:43:00.711Z,100882.06
2022-07-29T11:45:45.589Z,100868.78
2022-07-29T11:48:29.012Z,100876.72
2022-07-29T11:50:58.877Z,100877.34
2022-07-29T11:53:25.794Z,100886.34
2022-07-29T11:55:58.407Z,100884.03
2022-07-29T11:58:26.275Z,100878.38
2022-07-29T12:00:55.515Z,100876.22
2022-07-29T12:03:32.828Z,100880.59
2022-07-29T12:06:13.316Z,100881.38
2022-07-29T12:08:44.331Z,100873.91
2022-07-29T12:11:22.620Z,100883.00
2022-07-29T12:13:53.906Z,100881.00
2022-07-29T12:16:25.318Z,100879.19
2022-07-29T12:19:00.825Z,100880.72
2022-07-29T12:21:29.784Z,100881.31
2022-07-29T12:24:03.405Z,100875.38
2022-07-29T12:26:34.127Z,100872.94
2022-07-29T12:29:03.187Z,100870.78
2022-07-29T12:31:43.567Z,100877.13
2022-07-29T12:34:12.904Z,100882.41
2022-07-29T12:36:39.491Z,100884.69
2022-07-29T12:39:06.239Z,100873.38
2022-07-29T12:41:33.203Z,100874.72
2022-07-29T12:43:59.746Z,100868.63
2022-07-29T12:46:26.378Z,100869.75
2022-07-29T12:48:59.555Z,100872.81
2022-07-29T12:51:34.567Z,100868.56
2022-07-29T12:54:11.208Z,100864.81
2022-07-29T12:56:43.674Z,100867.19
2022-07-29T12:59:21.575Z,100876.47
2022-07-29T13:01:52.287Z,100868.69
2022-07-29T13:04:27.861Z,100861.66
2022-07-29T13:07:04.405Z,100864.31
2022-07-29T13:09:48.632Z,100854.38
2022-07-29T13:12:15.553Z,100854.69
2022-07-29T13:14:47.050Z,100866.25
2022-07-29T13:17:16.723Z,100855.34
2022-07-29T13:19:44.651Z,100862.16
2022-07-29T13:22:22.484Z,100872.00
2022-07-29T13:24:53.882Z,100871.28
2022-07-29T13:27:23.265Z,100870.22
2022-07-29T13:29:52.168Z,100869.88
2022-07-29T13:32:28.458Z,100868.06
2022-07-29T13:35:05.473Z,100861.66
2022-07-29T13:37:34.948Z,100859.00
2022-07-29T13:40:03.993Z,100858.44
2022-07-29T13:42:30.741Z,100858.94
2022-07-29T13:44:57.288Z,100851.03
2022-07-29T13:47:32.099Z,100850.97
2022-07-29T13:50:00.880Z,100857.97
2022-07-29T13:52:27.406Z,100849.94
2022-07-29T13:54:53.893Z,100852.28
2022-07-29T13:57:20.388Z,100847.44
2022-07-29T13:59:51.864Z,100861.41
2022-07-29T14:02:20.411Z,100850.31
2022-07-29T14:04:47.086Z,100851.22
2022-07-29T14:07:16.413Z,100854.50
2022-07-29T14:09:43.292Z,100843.19
2022-07-29T14:12:10.099Z,100842.16
2022-07-29T14:14:37.619Z,100837.53
2022-07-29T14:17:07.236Z,100843.44
2022-07-29T14:19:36.572Z,100825.03
2022-07-29T14:22:05.006Z,100834.16
2022-07-29T14:24:32.183Z,100836.91
2022-07-29T14:26:59.643Z,100833.59
2022-07-29T14:29:37.228Z,100844.09
2022-07-29T14:32:06.598Z,100844.66
2022-07-29T14:34:34.365Z,100846.50
2022-07-29T14:37:00.897Z,100843.50
2022-07-29T14:39:31.829Z,100849.84
2022-07-29T14:41:59.173Z,100856.94
2022-07-29T14:44:31.822Z,100848.59
2022-07-29T14:47:01.653Z,100853.63
2022-07-29T14:49:35.020Z,100854.25
2022-07-29T14:52:01.770Z,100852.13
2022-07-29T14:54:28.351Z,100868.84
2022-07-29T14:56:57.874Z,100862.94
2022-07-29T14:59:24.578Z,100866.78
2022-07-29T15:01:51.207Z,100864.88
2022-07-29T15:04:17.694Z,100859.84
2022-07-29T15:06:44.750Z,100860.47
2022-07-29T15:09:11.534Z,100856.00
2022-07-29T15:11:38.707Z,100856.09
2022-07-29T15:14:06.692Z,100865.19
2022-07-29T15:16:33.818Z,100864.31
2022-07-29T15:19:01.264Z,100859.75
2022-07-29T15:21:28.454Z,100869.25
2022-07-29T15:23:54.975Z,100864.13
2022-07-29T15:26:21.857Z,100871.59
2022-07-29T15:28:49.100Z,100872.88
2022-07-29T15:31:15.710Z,100855.13
2022-07-29T15:33:42.303Z,100871.59
2022-07-29T15:36:08.954Z,100862.06
2022-07-29T15:38:35.547Z,100869.47
2022-07-29T15:41:08.457Z,100872.47
2022-07-29T15:43:36.133Z,100869.34
2022-07-29T15:46:21.644Z,100873.59
2022-07-29T15:48:48.238Z,100873.38
2022-07-29T15:51:15.206Z,100870.72
2022-07-29T15:53:41.712Z,100876.56
2022-07-29T15:56:08.173Z,100867.94
2022-07-29T15:58:34.640Z,100868.44
2022-07-29T16:01:01.155Z,100869.09
2022-07-29T16:03:27.650Z,100861.84
2022-07-29T16:05:54.120Z,100863.78
2022-07-29T16:08:20.652Z,100861.97
2022-07-29T16:10:47.132Z,100862.81
2022-07-29T16:13:16.942Z,100864.00
2022-07-29T16:15:45.384Z,100863.03
2022-07-29T16:18:30.066Z,100854.19
2022-07-29T16:20:57.074Z,100849.03
2022-07-29T16:23:24.619Z,100851.28
2022-07-29T16:25:59.680Z,100839.84
2022-07-29T16:28:27.432Z,100843.38
2022-07-29T16:30:53.933Z,100847.53
2022-07-29T16:33:20.447Z,100848.81
2022-07-29T16:35:46.918Z,100846.00
2022-07-29T16:38:13.604Z,100843.94
2022-07-29T16:40:40.334Z,100838.88
2022-07-29T16:43:06.872Z,100844.88
2022-07-29T16:45:45.770Z,100841.53
2022-07-29T16:48:13.807Z,100848.16
2022-07-29T16:50:40.890Z,100853.59
2022-07-29T16:53:10.247Z,100854.69
2022-07-29T16:55:36.801Z,100853.94
2022-07-29T16:58:03.312Z,100862.84
2022-07-29T17:00:29.853Z,100860.34
2022-07-29T17:02:56.398Z,100858.84
2022-07-29T17:05:22.901Z,100863.03
2022-07-29T17:07:49.898Z,100858.34
2022-07-29T17:10:16.392Z,100862.78
2022-07-29T17:12:42.908Z,100859.97
2022-07-29T17:15:11.330Z,100868.22
2022-07-29T17:17:55.090Z,100862.19
2022-07-29T17:20:22.169Z,100870.22
2022-07-29T17:22:48.616Z,100869.34
2022-07-29T17:25:20.623Z,100878.41
2022-07-29T17:27:49.584Z,100878.09
2022-07-29T17:30:16.361Z,100870.38
2022-07-29T17:32:42.837Z,100877.00
2022-07-29T17:35:29.198Z,100874.03
2022-07-29T17:37:55.826Z,100883.22
2022-07-29T17:40:22.642Z,100872.31
2022-07-29T17:42:49.224Z,100880.34
2022-07-29T17:45:15.734Z,100884.63
2022-07-29T17:47:42.253Z,100884.72
2022-07-29T17:50:09.156Z,100891.72
2022-07-29T17:52:35.680Z,100892.44
2022-07-29T17:55:02.588Z,100891.59
2022-07-29T17:57:29.126Z,100892.34
2022-07-29T17:59:55.658Z,100895.03
2022-07-29T18:02:22.258Z,100889.69
2022-07-29T18:04:51.488Z,100901.53
2022-07-29T18:07:18.537Z,100900.78
2022-07-29T18:09:45.191Z,100898.34
2022-07-29T18:12:11.725Z,100897.06
2022-07-29T18:14:38.498Z,100901.00
2022-07-29T18:17:05.006Z,100913.91
2022-07-29T18:19:31.493Z,100906.41
2022-07-29T18:22:03.219Z,100907.16
2022-07-29T18:24:32.207Z,100911.53
2022-07-29T18:26:58.922Z,100916.59
2022-07-29T18:29:25.794Z,100916.13
2022-07-29T18:31:52.279Z,100918.25
2022-07-29T18:34:18.786Z,100914.66
2022-07-29T18:36:46.164Z,100921.81
2022-07-29T18:39:19.154Z,100914.84
2022-07-29T18:41:50.762Z,100920.78
2022-07-29T18:44:21.753Z,100926.72
2022-07-29T18:46:48.771Z,100922.00
2022-07-29T18:49:15.340Z,100917.25
2022-07-29T18:51:41.926Z,100917.16
2022-07-29T18:54:09.991Z,100917.03
2022-07-29T18:56:37.245Z,100913.63
2022-07-29T18:59:04.257Z,100921.75
2022-07-29T19:01:31.739Z,100914.03
2022-07-29T19:03:58.624Z,100922.47
2022-07-29T19:06:25.927Z,100925.16
2022-07-29T19:08:52.912Z,100920.88
2022-07-29T19:11:19.385Z,100926.97
2022-07-29T19:13:45.910Z,100916.22
2022-07-29T19:16:14.083Z,100928.63
2022-07-29T19:18:41.270Z,100923.88
2022-07-29T19:21:07.806Z,100928.63
2022-07-29T19:24:00.008Z,100920.72
2022-07-29T19:26:20.981Z,100925.31
2022-07-29T19:28:48.847Z,100915.00
2022-07-29T19:31:15.960Z,100920.53
2022-07-29T19:33:42.760Z,100922.88
2022-07-29T19:36:09.485Z,100937.00
2022-07-29T19:38:38.137Z,100932.50
2022-07-29T19:41:06.131Z,100928.78
2022-07-29T19:43:51.857Z,100936.78
2022-07-29T19:46:19.705Z,100940.13
2022-07-29T19:48:46.396Z,100947.19
2022-07-29T19:51:13.038Z,100944.50
2022-07-29T19:53:39.735Z,100952.56
2022-07-29T19:56:08.940Z,100954.69
2022-07-29T19:58:35.943Z,100954.47
2022-07-29T20:01:02.956Z,100961.78
2022-07-29T20:03:36.992Z,100967.84
2022-07-29T20:06:03.626Z,100970.44
2022-07-29T20:08:30.114Z,100970.19
2022-07-29T20:10:56.775Z,100970.44
2022-07-29T20:13:23.241Z,100972.44
2022-07-29T20:15:49.770Z,100978.59
2022-07-29T20:18:16.410Z,100965.16
2022-07-29T20:20:43.401Z,100965.75
2022-07-29T20:23:11.571Z,100972.72
2022-07-29T20:25:39.276Z,100978.19
2022-07-29T20:28:05.825Z,100977.00
2022-07-29T20:30:32.353Z,100975.81
2022-07-29T20:32:59.536Z,100979.13
2022-07-29T20:35:27.972Z,100977.97
2022-07-29T20:37:56.611Z,100987.72
2022-07-29T20:40:27.110Z,100992.44
2022-07-29T20:42:54.872Z,100986.53
2022-07-29T20:45:23.412Z,100986.03
2022-07-29T20:47:51.655Z,100987.94
2022-07-29T20:50:19.011Z,100990.31
2022-07-29T20:52:45.699Z,101003.25
2022-07-29T20:55:12.282Z,100997.91
2022-07-29T20:57:39.989Z,100998.88
2022-07-29T21:00:07.653Z,100997.31
2022-07-29T21:02:34.447Z,100993.69
2022-07-29T21:05:01.102Z,100993.09
2022-07-29T21:07:27.752Z,100988.72
2022-07-29T21:09:54.227Z,100997.16
2022-07-29T21:12:20.685Z,100995.28
2022-07-29T21:14:47.998Z,100999.59
2022-07-29T21:17:16.272Z,101003.78
2022-07-29T21:19:43.160Z,101003.97
2022-07-29T21:22:09.736Z,101000.75
2022-07-29T21:24:36.277Z,101007.41
2022-07-29T21:27:22.003Z,101007.72
2022-07-29T21:29:48.842Z,101005.50
2022-07-29T21:32:27.471Z,101002.75
2022-07-29T21:34:56.395Z,101008.03
2022-07-29T21:37:23.318Z,101009.50
2022-07-29T21:39:49.870Z,101010.91
2022-07-29T21:42:16.624Z,101014.69
2022-07-29T21:44:43.160Z,101025.94
2022-07-29T21:47:10.604Z,101025.84
2022-07-29T21:49:37.291Z,101020.31
2022-07-29T21:52:04.861Z,101020.00
2022-07-29T21:54:31.481Z,101027.97
2022-07-29T21:56:58.392Z,101021.53
2022-07-29T21:59:24.953Z,101030.47
2022-07-29T22:01:51.828Z,101036.72
2022-07-29T22:04:18.521Z,101037.19
2022-07-29T22:06:45.071Z,101041.66
2022-07-29T22:09:11.588Z,101033.59
2022-07-29T22:11:38.175Z,101030.06
2022-07-29T22:14:05.684Z,101024.97
2022-07-29T22:16:32.243Z,101025.84
2022-07-29T22:18:58.739Z,101028.50
2022-07-29T22:21:25.219Z,101023.53
2022-07-29T22:23:51.724Z,101029.13
2022-07-29T22:26:18.313Z,101030.19
2022-07-29T22:28:44.762Z,101025.34
2022-07-29T22:31:11.346Z,101027.47
2022-07-29T22:33:38.160Z,101028.91
2022-07-29T22:36:04.971Z,101022.47
2022-07-29T22:38:31.439Z,101038.22
2022-07-29T22:41:00.456Z,101034.72
2022-07-29T22:43:27.347Z,101029.56
2022-07-29T22:45:53.865Z,101027.00
2022-07-29T22:48:20.353Z,101027.75
2022-07-29T22:50:46.874Z,101021.19
2022-07-29T22:53:13.376Z,101025.41
2022-07-29T22:55:39.996Z,101020.09
2022-07-29T22:58:06.657Z,101016.97
2022-07-29T23:00:33.353Z,101018.84
2022-07-29T23:02:59.851Z,101018.34
2022-07-29T23:05:26.313Z,101011.41
2022-07-29T23:07:52.803Z,101015.41
2022-07-29T23:10:19.283Z,101012.75
2022-07-29T23:12:45.756Z,101004.38
2022-07-29T23:15:12.882Z,101002.09
2022-07-29T23:17:39.367Z,100993.72
2022-07-29T23:20:07.828Z,100993.50
2022-07-29T23:22:35.831Z,100994.06
2022-07-29T23:25:02.431Z,100990.22
2022-07-29T23:27:28.883Z,100979.59
2022-07-29T23:29:55.359Z,100980.84
2022-07-29T23:32:21.803Z,100974.88
2022-07-29T23:34:48.264Z,100981.41
2022-07-29T23:37:14.708Z,100976.50
2022-07-29T23:39:41.183Z,100980.97
2022-07-29T23:42:07.660Z,100982.06
2022-07-29T23:44:34.337Z,100979.75
2022-07-29T23:47:00.938Z,100975.03
2022-07-29T23:49:27.614Z,100981.97
2022-07-29T23:51:54.080Z,100979.09
2022-07-29T23:54:20.540Z,100971.66
2022-07-29T23:56:46.976Z,100977.47
2022-07-29T23:59:13.452Z,100976.53
